Time;durP1;ratioP1;P1;durP2;ratioP2;P2;SDS_P1;SDS_P2;PMS_P1;PMS_P2;Temp;Humidity;BMP_temperature;BMP_pressure;BME280_temperature;BME280_humidity;BME280_pressure;Samples;Min_cycle;Max_cycle;Signal;HPM_P1;HPM_P2
2023/09/12 00:00:53;;;;;;;12.32;8.65;;;;;;;24.43;64.81;101242.47;4987365;28;20396;-67
2023/09/12 00:03:20;;;;;;;9.75;8.75;;;;;;;24.41;65.08;101255.41;4986616;28;20041;-67
2023/09/12 00:05:56;;;;;;;10.77;7.70;;;;;;;24.39;65.07;101257.47;4986408;28;20089;-67
2023/09/12 00:08:22;;;;;;;11.00;9.10;;;;;;;24.39;65.13;101260.19;4987002;28;20070;-67
2023/09/12 00:10:47;;;;;;;12.30;8.57;;;;;;;24.39;65.09;101262.91;4987077;28;20117;-67
2023/09/12 00:13:12;;;;;;;10.82;8.52;;;;;;;24.38;64.92;101263.94;4987328;28;20030;-67
2023/09/12 00:15:38;;;;;;;11.52;8.90;;;;;;;24.38;65.13;101267.47;4987303;28;20638;-67
2023/09/12 00:18:04;;;;;;;10.73;8.63;;;;;;;24.37;64.90;101265.81;4986833;28;20030;-67
2023/09/12 00:20:29;;;;;;;13.55;9.02;;;;;;;24.36;65.03;101269.53;4986974;28;20065;-67
2023/09/12 00:22:55;;;;;;;11.93;8.68;;;;;;;24.37;64.75;101264.97;4987498;28;20042;-67
2023/09/12 00:25:21;;;;;;;12.52;8.55;;;;;;;24.36;64.74;101265.97;4987103;28;20034;-67
2023/09/12 00:27:47;;;;;;;10.85;8.77;;;;;;;24.36;64.79;101264.09;4987026;28;20041;-67
2023/09/12 00:30:14;;;;;;;9.52;8.38;;;;;;;24.35;64.64;101269.72;4987223;28;20054;-67
2023/09/12 00:32:40;;;;;;;12.35;8.55;;;;;;;24.35;65.19;101269.72;4988245;28;20085;-67
2023/09/12 00:35:06;;;;;;;9.38;8.38;;;;;;;24.33;64.93;101269.91;4988356;28;20469;-67
2023/09/12 00:37:31;;;;;;;10.63;8.57;;;;;;;24.33;65.02;101263.59;4987932;28;20046;-67
2023/09/12 00:39:57;;;;;;;10.80;7.93;;;;;;;24.33;64.63;101263.59;4987603;28;20552;-67
2023/09/12 00:42:25;;;;;;;11.43;8.27;;;;;;;24.31;64.75;101266.53;4987067;28;20041;-67
2023/09/12 00:44:50;;;;;;;10.88;8.75;;;;;;;24.31;65.00;101269.25;4986889;28;20038;-67
2023/09/12 00:47:16;;;;;;;11.07;7.57;;;;;;;24.31;64.96;101268.38;4986650;28;20034;-67
2023/09/12 00:49:42;;;;;;;11.98;8.27;;;;;;;24.30;65.01;101264.81;4986906;28;20034;-67
2023/09/12 00:52:08;;;;;;;9.45;7.78;;;;;;;24.29;64.79;101262.28;4986201;28;20038;-67
2023/09/12 00:54:33;;;;;;;9.65;7.70;;;;;;;24.29;64.53;101267.72;4985774;28;20038;-67
2023/09/12 00:56:59;;;;;;;10.45;8.50;;;;;;;24.29;64.58;101259.53;4985781;28;20133;-67
2023/09/12 00:59:24;;;;;;;9.38;8.38;;;;;;;24.26;64.15;101260.75;4987324;28;20039;-67
2023/09/12 01:01:50;;;;;;;8.20;7.47;;;;;;;24.26;64.68;101255.31;4990415;28;20402;-67
2023/09/12 01:04:16;;;;;;;8.15;6.95;;;;;;;24.26;64.62;101257.19;4987506;28;20027;-67
2023/09/12 01:06:42;;;;;;;7.63;6.90;;;;;;;24.25;64.47;101245.44;4987737;28;20388;-67
2023/09/12 01:09:08;;;;;;;9.48;6.70;;;;;;;24.24;64.35;101248.34;4987523;28;20030;-67
2023/09/12 01:11:34;;;;;;;8.32;6.25;;;;;;;24.24;64.59;101248.34;4987105;28;20038;-67
2023/09/12 01:13:59;;;;;;;7.85;6.32;;;;;;;24.24;64.20;101248.34;4986355;28;20054;-67
2023/09/12 01:16:25;;;;;;;6.75;6.05;;;;;;;24.22;64.47;101242.22;4986337;28;20093;-67
2023/09/12 01:18:50;;;;;;;10.70;6.15;;;;;;;24.23;64.12;101244.78;4986141;28;20104;-67
2023/09/12 01:21:18;;;;;;;9.05;5.75;;;;;;;24.22;64.23;101244.94;4986085;28;20105;-67
2023/09/12 01:23:57;;;;;;;11.93;5.82;;;;;;;24.20;64.26;101242.44;4985305;28;20026;-67
2023/09/12 01:26:36;;;;;;;7.32;6.47;;;;;;;24.21;64.22;101249.56;4985013;28;20030;-67
2023/09/12 01:29:06;;;;;;;10.35;6.85;;;;;;;24.19;64.11;101243.44;4986399;28;20037;-67
2023/09/12 01:31:33;;;;;;;7.03;5.75;;;;;;;24.20;64.20;101242.44;4986375;28;20038;-67
2023/09/12 01:34:09;;;;;;;7.53;5.85;;;;;;;24.19;63.89;101240.72;4987598;28;20126;-67
2023/09/12 01:36:34;;;;;;;6.18;5.47;;;;;;;24.19;64.00;101240.72;4989295;28;20138;-67
2023/09/12 01:38:59;;;;;;;6.25;5.68;;;;;;;24.18;63.85;101239.88;4990225;28;20120;-67
2023/09/12 01:41:26;;;;;;;10.48;5.82;;;;;;;24.16;63.88;101244.66;4989663;28;20113;-67
2023/09/12 01:43:52;;;;;;;7.07;5.50;;;;;;;24.16;63.79;101236.50;4991120;28;20497;-67
2023/09/12 01:46:18;;;;;;;5.47;4.88;;;;;;;24.14;63.62;101233.13;4990702;28;20042;-67
2023/09/12 01:48:44;;;;;;;5.70;5.13;;;;;;;24.13;63.71;101236.84;4990603;28;20116;-66
2023/09/12 01:51:11;;;;;;;7.50;5.47;;;;;;;24.12;63.62;101235.16;4990110;28;20117;-67
2023/09/12 01:53:37;;;;;;;7.70;5.30;;;;;;;24.12;63.80;101231.56;4989474;28;20038;-67
2023/09/12 01:56:03;;;;;;;7.38;4.80;;;;;;;24.12;63.38;101237.88;4989425;28;20045;-67
2023/09/12 01:58:28;;;;;;;5.43;4.93;;;;;;;24.12;63.64;101243.31;4989731;28;20038;-67
2023/09/12 02:00:54;;;;;;;8.27;4.85;;;;;;;24.12;63.61;101243.31;4989779;28;20086;-67
2023/09/12 02:03:19;;;;;;;5.38;4.63;;;;;;;24.11;63.35;101238.91;4990033;28;20089;-67
2023/09/12 02:05:45;;;;;;;4.35;3.92;;;;;;;24.11;63.13;101244.34;4990226;28;20066;-67
2023/09/12 02:08:10;;;;;;;4.70;3.90;;;;;;;24.11;62.89;101238.91;4990629;28;20392;-67
2023/09/12 02:10:35;;;;;;;7.78;4.32;;;;;;;24.10;63.14;101239.91;4990192;28;20026;-69
2023/09/12 02:13:01;;;;;;;6.70;4.90;;;;;;;24.09;63.17;101230.06;4986962;28;20105;-67
2023/09/12 02:15:26;;;;;;;8.32;4.10;;;;;;;24.08;63.23;101233.78;4989117;28;20045;-67
2023/09/12 02:17:52;;;;;;;7.40;4.55;;;;;;;24.09;62.98;101229.22;4987974;28;20033;-67
2023/09/12 02:20:18;;;;;;;5.18;4.13;;;;;;;24.07;63.10;101226.69;4988733;28;20042;-67
2023/09/12 02:22:43;;;;;;;6.13;3.80;;;;;;;24.07;62.98;101225.84;4990417;28;20057;-67
2023/09/12 02:25:09;;;;;;;4.65;3.78;;;;;;;24.07;63.00;101226.69;4989378;28;20053;-67
2023/09/12 02:27:34;;;;;;;10.23;4.20;;;;;;;24.07;63.00;101223.13;4989189;28;20073;-67
2023/09/12 02:30:00;;;;;;;7.05;3.55;;;;;;;24.06;62.62;101241.28;4989101;28;20030;-67
2023/09/12 02:32:25;;;;;;;7.20;3.78;;;;;;;24.06;62.40;101240.44;4988999;28;20043;-67
2023/09/12 02:34:53;;;;;;;4.43;3.85;;;;;;;24.04;62.66;101246.06;4989105;28;20031;-67
2023/09/12 02:37:18;;;;;;;5.55;3.80;;;;;;;24.04;62.58;101242.50;4989651;28;20385;-67
2023/09/12 02:39:43;;;;;;;4.68;4.28;;;;;;;24.02;62.29;101242.69;4989395;28;20046;-67
2023/09/12 02:42:09;;;;;;;7.75;4.20;;;;;;;24.01;62.62;101235.56;4995336;28;20441;-67
2023/09/12 02:44:34;;;;;;;4.82;3.70;;;;;;;24.01;62.57;101238.28;4986507;28;20061;-67
2023/09/12 02:47:00;;;;;;;3.95;3.55;;;;;;;24.01;62.25;101238.28;4988273;28;20401;-67
2023/09/12 02:49:25;;;;;;;4.00;3.70;;;;;;;24.01;62.31;101230.13;4988064;28;20030;-67
2023/09/12 02:51:51;;;;;;;5.35;3.50;;;;;;;24.00;61.97;101233.84;4988026;28;20419;-67
2023/09/12 02:54:16;;;;;;;6.57;3.55;;;;;;;23.99;62.50;101234.88;4988306;28;20027;-67
2023/09/12 02:56:41;;;;;;;4.82;3.83;;;;;;;23.98;62.32;101234.00;4988099;28;20125;-67
2023/09/12 02:59:07;;;;;;;5.22;3.92;;;;;;;23.97;62.17;101232.34;4989027;28;20125;-67
2023/09/12 03:01:32;;;;;;;4.10;3.70;;;;;;;23.96;62.60;101235.22;4990212;28;20482;-67
2023/09/12 03:03:58;;;;;;;9.68;4.57;;;;;;;23.95;62.27;101231.66;4990126;28;20452;-67
2023/09/12 03:06:23;;;;;;;4.70;4.20;;;;;;;23.95;62.58;101236.25;4989890;28;20069;-67
2023/09/12 03:08:48;;;;;;;7.13;4.50;;;;;;;23.94;62.78;101234.56;4988622;28;20113;-67
2023/09/12 03:11:14;;;;;;;5.85;5.15;;;;;;;23.93;62.31;101235.56;4989339;28;20160;-67
2023/09/12 03:13:40;;;;;;;8.35;5.15;;;;;;;23.92;62.76;101239.31;4988886;28;20033;-67
2023/09/12 03:16:13;;;;;;;4.95;4.45;;;;;;;23.93;62.37;101241.00;4987616;28;20045;-67
2023/09/12 03:18:39;;;;;;;5.72;4.55;;;;;;;23.92;62.29;101233.88;4987894;28;20076;-67
2023/09/12 03:21:04;;;;;;;5.90;5.03;;;;;;;23.92;62.39;101233.88;4987611;28;20030;-67
2023/09/12 03:23:30;;;;;;;6.00;5.40;;;;;;;23.92;62.24;101233.88;4986556;28;20038;-67
2023/09/12 03:26:04;;;;;;;5.93;4.47;;;;;;;23.91;62.43;101226.75;4987630;28;20078;-67
2023/09/12 03:28:29;;;;;;;6.20;4.88;;;;;;;23.92;62.35;101220.28;4987798;28;20027;-67
2023/09/12 03:31:07;;;;;;;5.80;5.20;;;;;;;23.92;62.39;101223.00;4988094;28;20619;-67
2023/09/12 03:33:32;;;;;;;7.63;5.55;;;;;;;23.89;62.27;101218.75;4983759;28;20070;-67
2023/09/12 03:35:58;;;;;;;7.13;5.20;;;;;;;23.89;62.21;101217.91;4987103;28;20038;-67
2023/09/12 03:38:24;;;;;;;8.43;4.70;;;;;;;23.89;62.08;101216.03;4986827;28;20046;-67
2023/09/12 03:40:49;;;;;;;5.85;5.13;;;;;;;23.88;61.83;101216.22;4986648;28;20435;-67
2023/09/12 03:43:14;;;;;;;7.60;4.70;;;;;;;23.87;61.90;101214.53;4987634;28;20034;-67
2023/09/12 03:45:40;;;;;;;5.18;4.50;;;;;;;23.87;61.67;101214.53;4989382;28;20114;-67
2023/09/12 03:48:05;;;;;;;6.13;3.92;;;;;;;23.85;61.56;101217.41;4989146;28;20035;-67
2023/09/12 03:50:30;;;;;;;7.47;3.75;;;;;;;23.85;61.74;101217.41;4989279;28;20527;-67
2023/09/12 03:52:56;;;;;;;4.88;4.15;;;;;;;23.84;61.79;101217.59;4989012;28;20034;-67
2023/09/12 03:55:21;;;;;;;5.10;4.60;;;;;;;23.83;61.78;101215.91;4987948;28;20034;-67
2023/09/12 03:57:47;;;;;;;7.97;3.95;;;;;;;23.84;61.57;101220.31;4988270;28;20037;-67
2023/09/12 04:00:13;;;;;;;4.20;3.72;;;;;;;23.81;62.01;101221.50;4982871;28;20030;-67
2023/09/12 04:02:38;;;;;;;5.30;3.83;;;;;;;23.82;61.48;101220.50;4990441;28;20084;-67
2023/09/12 04:05:04;;;;;;;6.35;3.53;;;;;;;23.80;61.78;101220.69;4987187;28;20026;-67
2023/09/12 04:07:30;;;;;;;3.90;3.42;;;;;;;23.80;61.56;101220.69;4986862;28;20040;-67
2023/09/12 04:09:55;;;;;;;5.57;3.42;;;;;;;23.79;61.97;101216.25;4992382;28;20034;-67
2023/09/12 04:12:20;;;;;;;5.35;3.28;;;;;;;23.79;61.38;101212.69;4986922;28;20425;-67
2023/09/12 04:14:47;;;;;;;7.88;3.33;;;;;;;23.78;61.76;101205.53;4986843;28;20061;-67
2023/09/12 04:17:12;;;;;;;4.88;3.25;;;;;;;23.76;61.22;101203.00;4985467;28;20038;-67
2023/09/12 04:19:37;;;;;;;7.97;3.40;;;;;;;23.77;61.35;101207.38;4986955;28;20038;-67
2023/09/12 04:22:04;;;;;;;3.35;3.05;;;;;;;23.75;61.38;101195.00;4986820;28;20042;-67
2023/09/12 04:24:29;;;;;;;3.70;3.15;;;;;;;23.75;61.46;101201.28;4988135;28;20061;-67
2023/09/12 04:26:55;;;;;;;4.10;3.30;;;;;;;23.75;61.64;101200.44;4987567;28;20070;-67
2023/09/12 04:29:20;;;;;;;4.57;3.40;;;;;;;23.74;61.20;101207.75;4987569;28;20105;-67
2023/09/12 04:31:45;;;;;;;4.18;3.78;;;;;;;23.74;61.23;101205.03;4986026;28;20165;-67
2023/09/12 04:34:11;;;;;;;6.53;3.63;;;;;;;23.73;61.28;101208.75;4986938;28;20042;-67
2023/09/12 04:36:36;;;;;;;5.32;3.67;;;;;;;23.73;61.65;101210.66;4986599;28;20031;-67
2023/09/12 04:39:02;;;;;;;4.90;4.05;;;;;;;23.73;61.90;101208.75;4986936;28;20054;-67
2023/09/12 04:41:27;;;;;;;5.32;3.42;;;;;;;23.72;61.30;101219.81;4987360;28;20485;-67
2023/09/12 04:43:52;;;;;;;5.05;3.92;;;;;;;23.71;61.59;101224.41;4988047;28;20113;-67
2023/09/12 04:46:18;;;;;;;6.15;3.83;;;;;;;23.71;61.49;101221.69;4988153;28;20026;-67
2023/09/12 04:48:43;;;;;;;7.88;3.83;;;;;;;23.71;62.23;101218.13;4987943;28;20040;-67
2023/09/12 04:51:09;;;;;;;5.70;4.30;;;;;;;23.69;61.73;101218.31;4986798;28;20037;-67
2023/09/12 04:53:35;;;;;;;5.88;3.88;;;;;;;23.69;61.39;101212.88;4986606;28;20040;-67
2023/09/12 04:56:04;;;;;;;6.18;4.45;;;;;;;23.69;61.49;101221.03;4985894;28;20033;-67
2023/09/12 04:58:29;;;;;;;7.07;4.57;;;;;;;23.67;61.95;101225.78;4985969;28;20037;-67
2023/09/12 05:00:55;;;;;;;4.38;3.70;;;;;;;23.68;61.32;101230.19;4984882;28;20043;-67
2023/09/12 05:03:21;;;;;;;9.02;3.08;;;;;;;23.69;61.78;101231.06;4981259;28;20033;-67
2023/09/12 05:05:48;;;;;;;6.32;3.40;;;;;;;23.69;61.38;101229.19;4991188;28;20118;-67
2023/09/12 05:08:13;;;;;;;6.00;3.40;;;;;;;23.70;61.23;101240.91;4991777;28;20034;-67
2023/09/12 05:10:38;;;;;;;5.13;3.20;;;;;;;23.70;61.60;101238.16;4990023;28;20027;-67
2023/09/12 05:13:05;;;;;;;3.92;3.47;;;;;;;23.71;61.35;101239.88;4991089;28;20060;-67
2023/09/12 05:15:30;;;;;;;3.90;2.70;;;;;;;23.71;61.09;101235.28;4995425;28;20476;-67
2023/09/12 05:17:55;;;;;;;4.30;2.92;;;;;;;23.72;61.22;101234.28;4994914;28;20049;-67
2023/09/12 05:20:21;;;;;;;5.68;3.40;;;;;;;23.72;61.30;101234.28;4995341;28;20081;-67
2023/09/12 05:22:46;;;;;;;5.65;2.83;;;;;;;23.73;61.29;101226.97;4995116;28;20033;-68
2023/09/12 05:25:12;;;;;;;6.28;3.55;;;;;;;23.74;61.60;101228.63;4992202;28;20035;-67
2023/09/12 05:27:37;;;;;;;7.45;4.80;;;;;;;23.75;61.77;101243.94;4988665;28;20038;-67
2023/09/12 05:30:03;;;;;;;5.20;4.45;;;;;;;23.73;61.91;101235.97;4989006;28;20031;-67
2023/09/12 05:32:28;;;;;;;8.18;5.43;;;;;;;23.72;62.22;101234.28;4988938;28;20396;-68
2023/09/12 05:34:54;;;;;;;12.80;7.85;;;;;;;23.73;62.07;101219.66;4989601;28;20073;-68
2023/09/12 05:37:20;;;;;;;13.88;7.60;;;;;;;23.72;62.07;101215.25;4988603;28;20058;-68
2023/09/12 05:39:46;;;;;;;13.20;7.07;;;;;;;23.71;62.04;101221.69;4988980;28;20062;-68
2023/09/12 05:42:12;;;;;;;12.20;7.00;;;;;;;23.72;61.84;101219.81;4989857;28;20161;-68
2023/09/12 05:44:37;;;;;;;12.10;6.35;;;;;;;23.72;61.91;101223.41;4989658;28;20042;-68
2023/09/12 05:47:03;;;;;;;11.88;6.63;;;;;;;23.72;62.31;101204.38;4990809;28;20034;-67
2023/09/12 05:49:28;;;;;;;10.25;6.40;;;;;;;23.72;62.09;101212.53;4990695;28;20068;-69
2023/09/12 05:51:54;;;;;;;12.30;8.07;;;;;;;23.72;62.63;101217.97;4992470;28;20038;-67
2023/09/12 05:54:20;;;;;;;16.20;7.53;;;;;;;23.75;62.45;101222.19;4997277;28;20085;-66
2023/09/12 05:56:47;;;;;;;12.02;7.72;;;;;;;23.73;62.27;101219.66;4989521;28;20037;-62
2023/09/12 05:59:12;;;;;;;10.30;8.02;;;;;;;23.72;62.81;101217.09;4989138;28;20362;-61
2023/09/12 06:01:39;;;;;;;11.35;7.43;;;;;;;23.70;62.72;101230.84;4988385;28;20103;-62
2023/09/12 06:04:04;;;;;;;9.05;7.57;;;;;;;23.68;62.96;101232.91;4994386;28;20045;-61
2023/09/12 06:06:30;;;;;;;14.38;8.10;;;;;;;23.67;63.29;101225.78;4995393;28;20420;-62
2023/09/12 06:08:56;;;;;;;16.42;7.40;;;;;;;23.64;63.36;101234.28;4994894;28;20129;-61
2023/09/12 06:11:21;;;;;;;13.57;8.65;;;;;;;23.63;62.86;101232.59;4995531;28;20022;-61
2023/09/12 06:13:47;;;;;;;10.75;8.15;;;;;;;23.64;63.18;101241.59;4994616;28;20037;-61
2023/09/12 06:16:12;;;;;;;13.38;7.82;;;;;;;23.61;63.51;101243.66;4991540;28;20030;-61
2023/09/12 06:18:37;;;;;;;9.27;7.88;;;;;;;23.61;63.27;101240.09;4994432;28;20077;-61
2023/09/12 06:21:04;;;;;;;10.15;7.13;;;;;;;23.61;62.84;101237.38;4992524;28;20030;-64
2023/09/12 06:23:30;;;;;;;11.02;7.57;;;;;;;23.58;63.22;101248.56;4991520;28;20042;-61
2023/09/12 06:25:56;;;;;;;11.55;7.50;;;;;;;23.59;63.70;101251.13;4995297;28;20424;-61
2023/09/12 06:28:27;;;;;;;12.63;7.85;;;;;;;23.58;63.77;101252.13;4987117;28;20070;-61
2023/09/12 06:30:53;;;;;;;9.70;7.07;;;;;;;23.58;63.67;101252.13;4990022;28;20030;-61
2023/09/12 06:33:18;;;;;;;10.43;7.05;;;;;;;23.58;63.58;101251.28;4995134;28;20033;-61
2023/09/12 06:35:43;;;;;;;8.77;7.30;;;;;;;23.57;63.66;101244.16;4990047;28;20034;-62
2023/09/12 06:38:09;;;;;;;11.35;7.57;;;;;;;23.57;63.40;101242.31;4989790;28;20087;-61
2023/09/12 06:40:34;;;;;;;8.18;6.60;;;;;;;23.56;63.74;101239.75;4989281;28;20400;-62
2023/09/12 06:43:00;;;;;;;11.10;6.85;;;;;;;23.57;63.54;101252.31;4989740;28;20435;-62
2023/09/12 06:45:25;;;;;;;10.57;7.18;;;;;;;23.55;63.75;101249.78;4989634;28;20041;-62
2023/09/12 06:47:50;;;;;;;8.50;7.18;;;;;;;23.56;63.47;101256.06;4989074;28;20038;-62
2023/09/12 06:50:16;;;;;;;12.38;6.93;;;;;;;23.55;64.00;101254.34;4986200;28;20034;-62
2023/09/12 06:52:41;;;;;;;8.57;6.53;;;;;;;23.55;63.49;101260.66;4986490;28;20480;-61
2023/09/12 06:55:07;;;;;;;11.52;7.43;;;;;;;23.56;63.72;101261.50;4989817;28;20026;-63
2023/09/12 06:57:32;;;;;;;12.32;7.40;;;;;;;23.55;63.72;101260.66;4993803;28;20034;-62
2023/09/12 06:59:58;;;;;;;7.65;6.72;;;;;;;23.55;64.13;101260.66;4993560;28;20118;-61
2023/09/12 07:02:23;;;;;;;8.88;6.10;;;;;;;23.55;63.42;101265.22;4993754;28;20042;-61
2023/09/12 07:04:48;;;;;;;7.97;5.72;;;;;;;23.56;64.02;101272.38;4993582;28;20065;-61
2023/09/12 07:07:14;;;;;;;8.00;6.22;;;;;;;23.55;63.47;101260.66;4993908;28;20026;-61
2023/09/12 07:09:39;;;;;;;8.55;6.65;;;;;;;23.56;63.78;101264.22;4993592;28;20057;-61
2023/09/12 07:12:05;;;;;;;6.82;6.07;;;;;;;23.56;63.81;101261.50;4994334;28;20097;-62
2023/09/12 07:14:31;;;;;;;10.25;7.35;;;;;;;23.56;63.99;101262.34;4994746;28;20460;-61
2023/09/12 07:16:56;;;;;;;9.45;6.60;;;;;;;23.55;63.45;101257.94;4995264;28;20045;-62
2023/09/12 07:19:22;;;;;;;8.85;6.68;;;;;;;23.57;63.68;101263.19;4992175;28;20148;-61
2023/09/12 07:21:47;;;;;;;8.10;6.15;;;;;;;23.57;63.98;101268.63;4988085;28;20049;-62
2023/09/12 07:24:12;;;;;;;8.85;5.43;;;;;;;23.56;64.24;101264.22;4994918;28;20472;-62
2023/09/12 07:26:38;;;;;;;6.75;5.97;;;;;;;23.57;63.92;101264.03;5000126;28;20038;-61
2023/09/12 07:29:05;;;;;;;11.00;6.15;;;;;;;23.58;63.92;101265.72;4988330;28;20057;-61
2023/09/12 07:31:31;;;;;;;10.02;5.95;;;;;;;23.58;64.21;101273.03;4987671;28;20519;-62
2023/09/12 07:33:56;;;;;;;12.60;6.63;;;;;;;23.58;63.85;101264.88;4986355;28;20042;-61
2023/09/12 07:36:21;;;;;;;12.65;6.28;;;;;;;23.59;63.75;101272.88;4986958;28;20480;-61
2023/09/12 07:38:47;;;;;;;8.13;5.97;;;;;;;23.59;64.36;101282.91;4987101;28;20034;-70
2023/09/12 07:41:12;;;;;;;8.85;6.15;;;;;;;23.59;64.12;101283.75;4986999;28;20034;-71
2023/09/12 07:43:38;;;;;;;7.90;5.93;;;;;;;23.61;63.46;101280.88;4986545;28;20037;-71
2023/09/12 07:46:03;;;;;;;7.40;5.88;;;;;;;23.60;63.68;101274.56;4987326;28;20500;-71
2023/09/12 07:48:29;;;;;;;9.27;6.40;;;;;;;23.61;64.32;101275.44;4986488;28;20503;-70
2023/09/12 07:50:54;;;;;;;7.40;5.40;;;;;;;23.61;63.80;101270.00;4986325;28;20037;-71
2023/09/12 07:53:19;;;;;;;8.13;5.75;;;;;;;23.61;64.05;101275.44;4986868;28;20046;-71
2023/09/12 07:55:46;;;;;;;10.25;6.32;;;;;;;23.64;64.14;101275.06;4987152;28;20030;-72
2023/09/12 07:58:15;;;;;;;7.10;5.78;;;;;;;23.64;63.62;101272.34;4987600;28;20038;-71
2023/09/12 08:00:41;;;;;;;6.22;5.45;;;;;;;23.65;63.72;101268.63;4987083;28;20516;-71
2023/09/12 08:03:06;;;;;;;8.32;5.35;;;;;;;23.67;63.88;101271.16;4987213;28;20038;-63
2023/09/12 08:05:31;;;;;;;6.20;4.88;;;;;;;23.68;63.87;101273.69;4986294;28;20045;-61
2023/09/12 08:07:57;;;;;;;6.78;5.20;;;;;;;23.68;63.62;101276.41;4985878;28;20041;-61
2023/09/12 08:10:22;;;;;;;5.70;4.70;;;;;;;23.70;63.46;101284.41;4986006;28;20026;-61
2023/09/12 08:12:48;;;;;;;7.20;5.18;;;;;;;23.71;63.68;101276.06;4985971;28;20069;-62
2023/09/12 08:15:13;;;;;;;6.07;5.22;;;;;;;23.72;63.94;101283.22;4984210;28;20030;-61
2023/09/12 08:17:39;;;;;;;7.97;5.90;;;;;;;23.74;64.09;101285.72;4985143;28;20035;-62
2023/09/12 08:20:06;;;;;;;5.93;4.80;;;;;;;23.74;64.13;101294.75;4986556;28;20035;-62
2023/09/12 08:22:31;;;;;;;6.68;4.90;;;;;;;23.75;64.03;101304.59;4986730;28;20379;-62
2023/09/12 08:24:56;;;;;;;6.32;4.55;;;;;;;23.76;63.05;101300.88;4989824;28;20042;-61
2023/09/12 08:27:22;;;;;;;5.85;5.18;;;;;;;23.76;64.34;101300.88;4986444;28;20069;-62
2023/09/12 08:29:48;;;;;;;6.40;5.32;;;;;;;23.77;64.51;101302.56;4985629;28;20062;-61
2023/09/12 08:32:13;;;;;;;5.53;4.78;;;;;;;23.78;63.96;101298.88;4993066;28;20033;-62
2023/09/12 08:34:39;;;;;;;9.43;5.70;;;;;;;23.78;64.33;101307.03;4985754;28;20030;-62
2023/09/12 08:37:04;;;;;;;7.25;4.85;;;;;;;23.79;64.18;101308.69;4992329;28;20108;-61
2023/09/12 08:39:43;;;;;;;5.18;4.55;;;;;;;23.80;63.72;101318.56;4989197;28;20053;-62
2023/09/12 08:42:12;;;;;;;6.18;4.90;;;;;;;23.79;63.55;101322.28;4992577;28;20094;-62
2023/09/12 08:44:38;;;;;;;5.95;4.78;;;;;;;23.80;63.82;101324.00;4990740;28;20061;-62
2023/09/12 08:47:05;;;;;;;6.93;5.50;;;;;;;23.81;64.05;101320.25;4992563;28;20117;-71
2023/09/12 08:49:34;;;;;;;6.50;4.80;;;;;;;23.81;64.13;101322.97;4990546;28;20038;-71
2023/09/12 08:52:00;;;;;;;7.28;5.60;;;;;;;23.84;64.34;101320.91;4986516;28;20026;-71
2023/09/12 08:54:25;;;;;;;5.72;5.03;;;;;;;23.86;64.26;101313.47;4985466;28;20027;-70
2023/09/12 08:56:50;;;;;;;7.25;5.70;;;;;;;23.87;64.35;101324.16;4985541;28;20357;-71
2023/09/12 08:59:17;;;;;;;9.73;6.00;;;;;;;23.89;64.89;101321.25;4985348;28;20060;-72
2023/09/12 09:01:43;;;;;;;8.15;5.55;;;;;;;23.90;64.71;101320.25;4984918;28;20042;-72
2023/09/12 09:04:08;;;;;;;10.95;5.55;;;;;;;23.92;64.68;101323.63;4985439;28;20109;-72
2023/09/12 09:06:37;;;;;;;5.20;4.53;;;;;;;23.93;65.03;101328.03;4985765;28;20065;-72
2023/09/12 09:09:05;;;;;;;9.77;5.50;;;;;;;23.94;64.87;101329.75;4982455;28;20042;-71
2023/09/12 09:11:30;;;;;;;6.78;5.38;;;;;;;23.95;64.72;101331.44;4986323;28;20029;-71
2023/09/12 09:13:56;;;;;;;6.53;4.38;;;;;;;23.95;64.96;101328.72;4983456;28;20041;-71
2023/09/12 09:16:23;;;;;;;6.85;4.97;;;;;;;23.96;65.05;101333.16;4986757;28;20384;-71
2023/09/12 09:18:59;;;;;;;5.07;4.13;;;;;;;23.96;64.63;101330.44;4986187;28;20427;-71
2023/09/12 09:21:27;;;;;;;4.75;4.22;;;;;;;23.96;64.69;101333.16;4987960;28;20121;-70
2023/09/12 09:23:54;;;;;;;5.53;4.47;;;;;;;23.96;64.78;101314.09;4985623;28;20538;-71
2023/09/12 09:26:19;;;;;;;7.18;4.55;;;;;;;23.95;64.69;101305.09;4987252;28;20037;-71
2023/09/12 09:28:45;;;;;;;6.57;4.32;;;;;;;23.95;65.04;101298.78;4990737;28;20031;-71
2023/09/12 09:31:14;;;;;;;6.72;4.47;;;;;;;23.94;64.97;101297.97;4991986;28;20018;-71
2023/09/12 09:33:40;;;;;;;8.40;3.88;;;;;;;23.95;64.60;101304.22;4985380;28;20481;-71
2023/09/12 09:36:07;;;;;;;6.60;4.00;;;;;;;23.94;64.05;101305.28;4990133;28;20105;-71
2023/09/12 09:38:34;;;;;;;5.43;3.38;;;;;;;23.94;62.70;101305.28;4985240;28;20066;-71
2023/09/12 09:41:03;;;;;;;4.97;4.10;;;;;;;23.94;63.16;101299.84;4985083;28;20138;-71
2023/09/12 09:43:31;;;;;;;6.00;4.68;;;;;;;23.93;64.01;101307.16;4984770;28;20046;-72
2023/09/12 09:45:57;;;;;;;7.35;4.82;;;;;;;23.94;64.45;101308.00;4984429;28;20767;-71
2023/09/12 09:48:26;;;;;;;6.53;3.60;;;;;;;23.95;63.15;101304.22;4984906;28;20026;-71
2023/09/12 09:50:53;;;;;;;4.63;4.22;;;;;;;23.95;63.49;101293.34;4985467;28;20039;-71
2023/09/12 09:53:39;;;;;;;6.72;4.78;;;;;;;23.97;64.07;101291.31;4987723;28;20481;-71
2023/09/12 09:56:13;;;;;;;6.45;5.15;;;;;;;23.97;64.54;101288.59;4993255;28;20026;-71
2023/09/12 09:58:48;;;;;;;7.47;5.10;;;;;;;23.98;64.44;101299.28;4992104;28;20030;-71
2023/09/12 10:01:19;;;;;;;6.20;4.57;;;;;;;23.98;64.82;101288.41;4988535;28;20496;-71
2023/09/12 10:03:47;;;;;;;6.45;5.03;;;;;;;23.98;64.50;101291.13;4988818;28;20434;-71
2023/09/12 10:06:14;;;;;;;6.95;5.53;;;;;;;23.99;64.69;101295.56;4988998;28;20050;-70
2023/09/12 10:08:42;;;;;;;11.88;6.28;;;;;;;24.00;64.64;101301.84;4988748;28;20061;-71
2023/09/12 10:11:08;;;;;;;8.18;5.50;;;;;;;24.00;64.83;101305.41;4988092;28;20054;-71
2023/09/12 10:13:37;;;;;;;8.73;5.45;;;;;;;24.02;65.07;101307.97;4988575;28;20031;-70
2023/09/12 10:16:04;;;;;;;8.95;5.88;;;;;;;24.03;64.93;101301.50;4991549;28;20033;-71
2023/09/12 10:18:40;;;;;;;6.47;5.53;;;;;;;24.05;64.85;101295.91;4989537;28;20034;-71
2023/09/12 10:21:11;;;;;;;8.27;5.43;;;;;;;24.05;64.93;101288.56;4987491;28;20030;-71
2023/09/12 10:23:44;;;;;;;8.30;5.15;;;;;;;24.06;64.61;101289.41;4988717;28;20038;-71
2023/09/12 10:26:14;;;;;;;6.53;5.10;;;;;;;24.07;64.95;101278.38;4988502;28;20034;-71
2023/09/12 10:28:43;;;;;;;6.07;4.82;;;;;;;24.07;64.74;101291.97;4987959;28;20026;-71
2023/09/12 10:31:10;;;;;;;5.65;4.95;;;;;;;24.08;64.90;101293.66;4986985;28;20515;-70
2023/09/12 10:33:36;;;;;;;5.63;5.03;;;;;;;24.09;64.62;101287.19;4990422;28;20027;-70
2023/09/12 10:36:04;;;;;;;7.38;5.00;;;;;;;24.11;64.91;101292.47;4989332;28;20089;-71
2023/09/12 10:38:36;;;;;;;7.28;5.40;;;;;;;24.10;64.98;101277.16;4990310;28;20106;-71
2023/09/12 10:41:03;;;;;;;6.43;4.82;;;;;;;24.11;64.54;101274.25;4991062;28;20121;-71
2023/09/12 10:43:33;;;;;;;6.38;4.78;;;;;;;24.10;64.80;101272.56;4990443;28;20105;-71
2023/09/12 10:46:02;;;;;;;8.57;5.45;;;;;;;24.11;65.04;101270.69;4988606;28;20364;-71
2023/09/12 10:48:28;;;;;;;7.93;4.95;;;;;;;24.12;64.72;101275.97;4987560;28;20528;-71
2023/09/12 10:50:57;;;;;;;6.72;4.97;;;;;;;24.12;64.54;101270.53;4989339;28;20038;-71
2023/09/12 10:53:24;;;;;;;6.72;4.72;;;;;;;24.13;64.58;101274.09;4994875;28;20468;-71
2023/09/12 10:56:20;;;;;;;6.75;5.45;;;;;;;24.17;64.87;101273.53;4994052;28;20109;-71
2023/09/12 10:59:06;;;;;;;6.43;5.57;;;;;;;24.16;64.75;101274.59;4986072;28;20034;-71
2023/09/12 11:01:37;;;;;;;8.00;5.53;;;;;;;24.15;64.59;101278.31;4993101;28;20508;-71
2023/09/12 11:04:27;;;;;;;6.32;5.43;;;;;;;24.17;64.62;101292.59;4994407;28;20523;-71
2023/09/12 11:06:52;;;;;;;6.97;5.35;;;;;;;24.17;64.92;101286.31;4992646;28;20049;-71
2023/09/12 11:09:22;;;;;;;6.10;5.25;;;;;;;24.15;64.69;101275.59;4993415;28;20027;-71
2023/09/12 11:11:54;;;;;;;7.45;5.80;;;;;;;24.16;64.83;101274.59;4986632;28;20023;-70
2023/09/12 11:14:19;;;;;;;8.25;5.65;;;;;;;24.17;64.89;101276.28;4986807;28;20103;-70
2023/09/12 11:17:11;;;;;;;7.95;5.88;;;;;;;24.20;64.97;101270.47;4987438;28;20071;-70
2023/09/12 11:19:49;;;;;;;6.90;5.20;;;;;;;24.19;65.04;101270.66;4980972;28;20465;-70
2023/09/12 11:22:22;;;;;;;6.28;5.65;;;;;;;24.17;64.74;101265.38;4987666;28;20049;-72